Current Weather

City

City, United Kingdom (EGLC)

Report from: Sunday, January 29, 2023 2:50 PM GMT
Current time: Sunday, January 29, 2023 3:11 PM GMT

Nearby weather
Weather history
Weather forecast

Temperature9.0°C (48.2°F)
Wind chill6.5°C (43.7°F)
Dew point6.0°C (42.8°F)
Winds 9 kts (4.6 m/s, 10.4 mph) West-Southwest (250°)
Visibility6.2 mi. (10 km)
Clouds Ceiling: Broken clouds 1,200 ft. (366 m)
Overcast 1,700 ft. (518 m)
Altimeter30.24 in.Hg (1024 mB)
Relative humidity81 %
Density altitude-947 ft. (-289 m)
Remarks Fully automated report
Flight conditions Marginal Visual Meteorological Conditions
Raw dataEGLC 291450Z AUTO 25009KT 9999 BKN012 OVC017 09/06 Q1024
An error has occurred. This application may no longer respond until reloaded. Reload 🗙